Terminal Aerodrome Forecast
Issued by NWS

Home | Current Version | Previous Version | Graphics & Text | Print | Product List | Glossary On
Versions: 1 2 3 4 5 6 7 8 9 10 11 12 13 14 15 16 17 18 19 20 21
000
FTUS43 KMPX 192337
TAFAXN
TAF
KAXN 192337Z 2000/2024 15009KT 1/4SM FG VV002
     FM201200 13007KT 1/2SM FG OVC003
     FM201800 13007KT 2SM BR OVC005=

USA.gov is the U.S. government's official web portal to all federal, state and local government web resources and services.